Portada
METAR-TAF:

METAR-TAF

Aeropuertos :

Aeropuerto de Brač

Brac, Croacia

latitud: 43-17-09N, longitud: 016-40-47E, altitud: 541 m

Observación

El informe se hizo hace 19 minutos, a las 11:30 UTC
Viento 23 kt del norte-noreste
Temperatura 14°C
Humedad 28%
Presión 1015 hPa
Visibilidad 10 km o más
sin nubes por debajo de 1500 m y sin presencia de cumulonimbus.

METAR: LDSB 041130Z 03023KT CAVOK 14/M04 Q1015

Hora: 13:49 (11:49 UTC)

Pronóstico

El informe se hizo hace 24 minutos, a las 11:25 UTC
Pronóstico válido del 04 a las 12 UTC al 05 a las 12 UTC
Viento 20 kt del noreste
Visibilidad 10 km o más
sin nubes por debajo de 1500 m y sin presencia de cumulonimbus.
Temporalmente
del 04 a las 12 UTC al 05 a las 07 UTC
Viento 25 kt del norte-noreste con ráfagas de 35 kt

TAF: LDSB 041125Z 0412/0512 04020KT CAVOK TX18/0511Z TN11/0505Z TEMPO 0412/0507 03025G35KT

Observaciones y pronósticos meteorológicos de más de 4000 aeropuertos (mensajes METAR y TAF).

Los puntos amarillos y rojos representan las estaciones disponibles.

Ponga el ratón en el punto deseado para ver el nombre de la estación.

Haga clic para ver las observaciones y los pronósticos meteorológicos.

Para cambiar el mapa : haga clic en los botones verdes con una cruz de color negro para hacer un zoom, en el botón verde con un guión para alejar o en las flechas verdes para mapas adyacentes.


METAR-TAF: